Time;durP1;ratioP1;P1;durP2;ratioP2;P2;SDS_P1;SDS_P2;PMS_P1;PMS_P2;Temp;Humidity;BMP_temperature;BMP_pressure;BME280_temperature;BME280_humidity;BME280_pressure;Samples;Min_cycle;Max_cycle;Signal;HPM_P1;HPM_P2
2022/11/12 00:01:00;;;;;;;15.40;5.43;;;8.30;81.80;;;;;;9174518;19;20021;-63
2022/11/12 00:04:22;;;;;;;11.77;4.93;;;8.30;81.80;;;;;;9174698;19;20031;-64
2022/11/12 00:07:44;;;;;;;13.38;5.22;;;8.30;81.80;;;;;;9176134;19;20019;-64
2022/11/12 00:11:07;;;;;;;11.88;5.18;;;8.30;81.90;;;;;;9176794;19;20051;-64
2022/11/12 00:14:31;;;;;;;10.88;4.88;;;8.30;81.90;;;;;;9182055;19;20487;-66
2022/11/12 00:17:53;;;;;;;11.05;4.57;;;8.20;81.80;;;;;;9182668;19;20022;-63
2022/11/12 00:21:16;;;;;;;9.88;4.60;;;8.20;81.90;;;;;;9183908;19;20740;-64
2022/11/12 00:24:38;;;;;;;15.88;5.22;;;8.20;81.90;;;;;;9181960;19;20053;-63
2022/11/12 00:28:04;;;;;;;10.10;4.40;;;8.20;81.90;;;;;;9184262;19;20048;-66
2022/11/12 00:31:28;;;;;;;12.18;4.97;;;8.20;81.90;;;;;;9182666;19;20021;-65
2022/11/12 00:34:51;;;;;;;15.90;5.63;;;8.10;81.90;;;;;;9181395;19;20110;-62
2022/11/12 00:38:13;;;;;;;11.20;5.15;;;8.10;81.90;;;;;;9183590;19;20011;-64
2022/11/12 00:41:35;;;;;;;10.77;4.40;;;8.10;81.90;;;;;;9180623;19;20086;-66
2022/11/12 00:44:58;;;;;;;7.70;4.28;;;8.10;81.90;;;;;;9177665;19;20022;-63
2022/11/12 00:48:22;;;;;;;12.57;5.05;;;8.10;81.90;;;;;;9181064;19;20018;-64
2022/11/12 00:51:45;;;;;;;12.18;4.82;;;8.00;81.90;;;;;;9181705;19;20017;-65
2022/11/12 00:55:07;;;;;;;9.63;4.43;;;8.00;81.90;;;;;;9174392;19;20030;-64
2022/11/12 00:58:31;;;;;;;12.90;4.72;;;8.00;81.90;;;;;;9182100;19;20018;-67
2022/11/12 01:01:53;;;;;;;14.00;4.65;;;8.00;81.90;;;;;;9180941;19;20030;-63
2022/11/12 01:05:17;;;;;;;11.23;4.75;;;8.00;81.90;;;;;;9180481;19;20022;-63
2022/11/12 01:08:40;;;;;;;11.43;4.75;;;7.90;81.90;;;;;;9180608;19;20019;-62
2022/11/12 01:12:02;;;;;;;12.43;4.90;;;7.90;81.90;;;;;;9179668;19;20379;-63
2022/11/12 01:15:24;;;;;;;11.10;5.18;;;7.90;81.90;;;;;;9181580;19;20021;-62
2022/11/12 01:18:48;;;;;;;13.63;5.22;;;7.90;81.90;;;;;;9181278;19;20348;-65
2022/11/12 01:22:12;;;;;;;12.93;4.93;;;7.90;81.90;;;;;;9180104;19;20360;-64
2022/11/12 01:25:34;;;;;;;;;;;7.80;81.90;;;;;;9180616;19;20007;-64
2022/11/12 01:28:57;;;;;;;11.85;4.93;;;7.80;81.90;;;;;;9181839;19;19922;-63
2022/11/12 01:32:19;;;;;;;13.27;4.88;;;7.80;81.80;;;;;;9180880;19;20440;-63
2022/11/12 01:35:42;;;;;;;10.27;4.20;;;7.70;81.80;;;;;;9182140;19;20076;-63
2022/11/12 01:39:08;;;;;;;9.35;4.57;;;7.70;81.90;;;;;;9180963;19;20011;-63
2022/11/12 01:42:32;;;;;;;9.93;4.60;;;7.70;81.90;;;;;;9180151;19;20022;-66
2022/11/12 01:45:55;;;;;;;9.77;5.20;;;7.60;81.90;;;;;;9181020;19;20111;-62
2022/11/12 01:49:22;;;;;;;9.95;5.05;;;7.60;81.90;;;;;;9180254;19;20015;-62
2022/11/12 01:52:49;;;;;;;9.43;4.40;;;7.60;81.90;;;;;;9181009;19;20081;-65
2022/11/12 01:56:15;;;;;;;13.15;4.80;;;7.50;81.80;;;;;;9181182;19;20038;-62
2022/11/12 01:59:41;;;;;;;10.93;4.25;;;7.50;81.90;;;;;;9181398;19;20528;-64
2022/11/12 02:03:08;;;;;;;8.98;4.57;;;7.50;81.90;;;;;;9176577;19;20015;-62
2022/11/12 02:06:32;;;;;;;19.27;5.18;;;7.50;81.90;;;;;;9178812;19;20095;-63
2022/11/12 02:09:55;;;;;;;10.98;5.40;;;7.40;81.90;;;;;;9178584;19;20018;-61
2022/11/12 02:16:56;;;;;;;11.05;5.10;;;7.40;81.90;;;;;;9177753;19;20021;-63
2022/11/12 02:20:18;;;;;;;9.85;4.55;;;7.40;81.90;;;;;;9180550;19;20021;-63
2022/11/12 02:23:42;;;;;;;10.57;4.53;;;7.30;81.90;;;;;;9174700;19;20755;-65
2022/11/12 02:27:06;;;;;;;12.32;5.18;;;7.30;82.00;;;;;;9179249;19;20014;-64
2022/11/12 02:30:37;;;;;;;9.50;4.60;;;7.30;82.00;;;;;;9180003;19;20011;-64
2022/11/12 02:34:00;;;;;;;13.38;5.20;;;7.30;82.00;;;;;;9178190;19;20019;-63
2022/11/12 02:37:22;;;;;;;15.13;5.30;;;7.30;82.00;;;;;;9179219;19;20022;-66
2022/11/12 02:40:46;;;;;;;10.57;5.07;;;7.20;81.90;;;;;;9179518;19;20014;-65
2022/11/12 02:44:09;;;;;;;11.85;4.95;;;7.20;82.00;;;;;;9177697;19;20018;-63
2022/11/12 02:47:35;;;;;;;7.72;4.43;;;7.20;82.00;;;;;;9176289;19;20042;-64
2022/11/12 02:50:57;;;;;;;16.02;5.10;;;7.20;82.10;;;;;;9179033;19;20015;-66
2022/11/12 02:54:20;;;;;;;10.45;4.53;;;7.20;82.00;;;;;;9172148;19;20014;-62
2022/11/12 02:57:44;;;;;;;9.95;4.68;;;7.10;82.00;;;;;;9179265;19;20373;-62
2022/11/12 03:01:06;;;;;;;11.43;4.60;;;7.20;82.00;;;;;;9180152;19;20006;-64
2022/11/12 03:04:29;;;;;;;14.70;5.15;;;7.10;82.00;;;;;;9178186;19;20106;-65
2022/11/12 03:07:51;;;;;;;12.77;4.75;;;7.10;82.00;;;;;;9178279;19;20044;-65
2022/11/12 03:11:15;;;;;;;11.30;5.05;;;7.10;82.10;;;;;;9178458;19;20094;-63
2022/11/12 03:14:39;;;;;;;9.07;4.03;;;7.10;82.10;;;;;;9173800;19;20932;-62
2022/11/12 03:18:02;;;;;;;10.18;5.00;;;7.10;82.10;;;;;;9178069;19;20018;-62
2022/11/12 03:21:24;;;;;;;13.52;5.38;;;7.00;82.00;;;;;;9175451;19;20039;-63
2022/11/12 03:24:46;;;;;;;9.75;5.20;;;7.00;82.10;;;;;;9178200;19;20038;-65
2022/11/12 03:28:10;;;;;;;15.13;4.88;;;7.00;82.10;;;;;;9177590;19;20014;-63
2022/11/12 03:31:34;;;;;;;9.60;4.82;;;7.00;82.10;;;;;;9176747;19;20152;-62
2022/11/12 03:34:56;;;;;;;;;;;7.00;82.10;;;;;;9178672;19;20018;-63
2022/11/12 03:38:19;;;;;;;10.32;4.75;;;7.00;82.10;;;;;;9177756;19;19918;-64
2022/11/12 03:41:41;;;;;;;10.63;4.68;;;7.00;82.00;;;;;;9174088;19;20018;-63
2022/11/12 03:45:04;;;;;;;12.07;4.88;;;6.90;82.00;;;;;;9177277;19;20034;-63
2022/11/12 03:48:28;;;;;;;8.57;4.45;;;6.90;82.00;;;;;;9173667;19;20022;-65
2022/11/12 03:51:51;;;;;;;12.43;5.07;;;6.90;82.10;;;;;;9176885;19;20032;-64
2022/11/12 03:55:13;;;;;;;11.07;5.60;;;6.90;82.10;;;;;;9168972;19;20007;-63
2022/11/12 03:58:36;;;;;;;9.88;4.72;;;6.90;82.10;;;;;;9174544;19;20063;-64
2022/11/12 04:01:58;;;;;;;9.05;4.35;;;6.90;82.10;;;;;;9175584;19;20447;-64
2022/11/12 04:08:58;;;;;;;13.75;5.15;;;6.80;82.10;;;;;;9176902;19;20687;-63
2022/11/12 04:23:10;;;;;;;8.73;4.22;;;6.80;82.10;;;;;;9173185;19;20060;-64
2022/11/12 04:26:30;;;;;;;11.68;5.15;;;6.80;82.10;;;;;;9176100;19;20086;-64
2022/11/12 04:33:29;;;;;;;8.32;4.93;;;6.70;82.10;;;;;;9175915;19;20014;-65
2022/11/12 04:36:52;;;;;;;10.80;4.68;;;6.70;82.10;;;;;;9173644;19;20022;-64
2022/11/12 04:47:34;;;;;;;8.93;4.30;;;6.60;82.00;;;;;;9175025;19;20007;-65
2022/11/12 04:51:00;;;;;;;8.68;4.72;;;6.60;82.10;;;;;;9173417;19;20115;-64
2022/11/12 04:54:22;;;;;;;9.93;4.80;;;6.60;82.10;;;;;;9167970;19;20014;-63
2022/11/12 04:57:46;;;;;;;11.52;4.82;;;6.60;82.10;;;;;;9172341;19;20018;-62
2022/11/12 05:01:08;;;;;;;10.25;5.00;;;6.50;82.10;;;;;;9182619;19;20014;-65
2022/11/12 05:04:31;;;;;;;12.85;5.43;;;6.50;82.10;;;;;;9182888;19;20018;-64
2022/11/12 05:07:53;;;;;;;12.88;5.22;;;6.50;82.10;;;;;;9181868;19;20334;-64
2022/11/12 05:11:15;;;;;;;9.10;5.05;;;6.50;82.10;;;;;;9180250;19;20022;-64
2022/11/12 05:14:40;;;;;;;14.23;5.03;;;6.50;82.10;;;;;;9182034;19;20467;-64
2022/11/12 05:18:03;;;;;;;8.98;5.03;;;6.40;82.10;;;;;;9182679;19;20482;-62
2022/11/12 05:25:05;;;;;;;12.52;4.30;;;6.40;82.10;;;;;;9181499;19;20400;-63
2022/11/12 05:28:28;;;;;;;8.23;4.43;;;6.40;82.10;;;;;;9180431;19;20021;-64
2022/11/12 05:31:53;;;;;;;8.85;4.22;;;6.40;82.10;;;;;;9180287;19;20014;-64
2022/11/12 05:35:15;;;;;;;12.35;4.82;;;6.30;82.10;;;;;;9182284;19;20596;-63
2022/11/12 05:38:38;;;;;;;8.32;4.32;;;6.30;82.10;;;;;;9179578;19;20018;-62
2022/11/12 05:42:00;;;;;;;6.65;4.18;;;6.30;82.10;;;;;;9180880;19;20386;-65
2022/11/12 05:45:37;;;;;;;8.18;4.38;;;6.30;82.10;;;;;;9178453;19;20594;-63
2022/11/12 05:49:02;;;;;;;7.25;4.03;;;6.30;82.10;;;;;;9182148;19;20023;-64
2022/11/12 05:52:24;;;;;;;9.13;4.15;;;6.20;82.10;;;;;;9181529;19;20030;-64
2022/11/12 05:55:46;;;;;;;5.65;3.70;;;6.20;82.10;;;;;;9172348;19;20586;-63
2022/11/12 05:59:12;;;;;;;12.88;3.85;;;6.20;82.10;;;;;;9181288;19;20019;-65
2022/11/12 06:02:34;;;;;;;6.93;4.13;;;6.20;82.10;;;;;;9177721;19;20034;-63
2022/11/12 06:05:59;;;;;;;11.15;4.15;;;6.20;82.10;;;;;;9177347;19;20093;-62
2022/11/12 06:09:21;;;;;;;8.43;3.65;;;6.10;82.10;;;;;;9180521;19;20019;-61
2022/11/12 06:12:43;;;;;;;6.63;3.22;;;6.10;82.00;;;;;;9176479;19;20022;-64
2022/11/12 06:16:06;;;;;;;9.15;4.32;;;6.10;82.10;;;;;;9177858;19;20014;-65
2022/11/12 06:19:29;;;;;;;6.57;3.78;;;6.10;82.00;;;;;;9172106;19;20034;-63
2022/11/12 06:22:53;;;;;;;13.52;3.92;;;6.10;82.10;;;;;;9171754;19;20474;-64
2022/11/12 06:26:15;;;;;;;10.27;4.03;;;6.00;82.00;;;;;;9173769;19;20035;-62
2022/11/12 06:29:39;;;;;;;6.57;3.78;;;6.00;82.00;;;;;;9170600;19;20019;-62
2022/11/12 06:33:01;;;;;;;7.50;4.53;;;6.00;82.00;;;;;;9167979;19;20365;-62
2022/11/12 06:36:24;;;;;;;8.68;3.53;;;6.00;82.10;;;;;;9174644;19;20031;-63
2022/11/12 06:39:48;;;;;;;8.50;4.38;;;5.90;82.00;;;;;;9179009;19;20472;-64
2022/11/12 06:43:10;;;;;;;6.65;3.95;;;5.90;82.00;;;;;;9177697;19;20032;-62
2022/11/12 06:46:32;;;;;;;6.20;3.85;;;5.90;82.00;;;;;;9177349;19;20046;-64
2022/11/12 06:49:55;;;;;;;7.57;4.05;;;5.90;82.10;;;;;;9178212;19;20025;-64
2022/11/12 06:53:17;;;;;;;10.10;4.13;;;5.90;82.00;;;;;;9174243;19;20350;-63
2022/11/12 06:56:41;;;;;;;6.10;4.00;;;5.80;81.90;;;;;;9178637;19;20038;-63
2022/11/12 07:00:04;;;;;;;7.03;3.65;;;5.80;81.90;;;;;;9178103;19;20020;-64
2022/11/12 07:03:26;;;;;;;7.70;3.92;;;5.80;82.00;;;;;;9175964;19;20027;-64
2022/11/12 07:06:49;;;;;;;10.07;4.00;;;5.80;82.00;;;;;;9177212;19;20029;-62
2022/11/12 07:10:11;;;;;;;7.65;4.05;;;5.80;82.00;;;;;;9176495;19;20043;-62
2022/11/12 07:13:37;;;;;;;9.90;3.38;;;5.70;82.00;;;;;;9176245;19;20011;-63
2022/11/12 07:16:59;;;;;;;12.60;3.72;;;5.70;82.00;;;;;;9177813;19;20401;-63
2022/11/12 07:20:21;;;;;;;9.50;3.60;;;5.70;82.00;;;;;;9176137;19;20015;-62
2022/11/12 07:23:44;;;;;;;6.97;3.42;;;5.70;81.90;;;;;;9176008;19;20744;-63
2022/11/12 07:27:06;;;;;;;6.65;3.50;;;5.70;82.00;;;;;;9176850;19;20021;-62
2022/11/12 07:30:31;;;;;;;7.00;4.00;;;5.70;82.00;;;;;;9176325;19;20402;-62
2022/11/12 07:33:53;;;;;;;6.85;3.97;;;5.70;82.00;;;;;;9177653;19;20503;-63
2022/11/12 07:37:15;;;;;;;5.22;3.67;;;5.60;81.90;;;;;;9175647;19;20014;-64
2022/11/12 07:40:38;;;;;;;6.22;3.55;;;5.60;81.90;;;;;;9175517;19;20014;-63
2022/11/12 07:44:00;;;;;;;7.93;3.97;;;5.60;81.90;;;;;;9174282;19;20392;-63
2022/11/12 07:47:24;;;;;;;16.23;5.72;;;5.60;81.90;;;;;;9177565;19;20014;-63
2022/11/12 07:50:46;;;;;;;11.93;4.05;;;5.60;82.00;;;;;;9177896;19;20052;-62
2022/11/12 07:54:09;;;;;;;13.10;4.63;;;5.60;82.00;;;;;;9171027;19;20018;-62
2022/11/12 07:57:33;;;;;;;14.50;4.85;;;5.60;82.10;;;;;;9177219;19;20487;-61
2022/11/12 08:00:59;;;;;;;16.83;5.45;;;5.60;82.00;;;;;;9175677;19;20022;-62
2022/11/12 08:04:23;;;;;;;42.20;6.97;;;5.60;82.10;;;;;;9171318;19;20018;-63
2022/11/12 08:07:45;;;;;;;;;;;5.60;82.20;;;;;;9177465;19;20078;-63
2022/11/12 08:11:08;;;;;;;63.63;9.88;;;5.60;82.20;;;;;;9174114;19;19922;-63
2022/11/12 08:14:30;;;;;;;33.05;7.55;;;5.60;82.00;;;;;;9175493;19;20490;-65
2022/11/12 08:17:52;;;;;;;28.33;7.65;;;5.60;82.20;;;;;;9175636;19;20373;-63
2022/11/12 08:21:18;;;;;;;19.25;7.72;;;5.60;82.30;;;;;;9174228;19;20031;-63
2022/11/12 08:24:40;;;;;;;33.47;7.10;;;5.70;82.30;;;;;;9169744;19;20019;-63
2022/11/12 08:28:03;;;;;;;14.75;7.05;;;5.70;82.30;;;;;;9175459;19;20014;-61
2022/11/12 08:31:25;;;;;;;20.88;7.45;;;5.70;82.30;;;;;;9174840;19;20014;-61
2022/11/12 08:34:48;;;;;;;19.23;8.00;;;5.70;82.40;;;;;;9178745;19;20014;-62
2022/11/12 08:38:12;;;;;;;18.67;7.35;;;5.80;83.10;;;;;;9181327;19;20498;-63
2022/11/12 08:41:35;;;;;;;21.13;8.20;;;5.80;82.60;;;;;;9183475;19;20010;-63
2022/11/12 08:44:58;;;;;;;18.13;7.70;;;5.90;82.60;;;;;;9181090;19;20464;-62
2022/11/12 08:48:21;;;;;;;14.13;7.95;;;6.00;82.80;;;;;;9183170;19;20023;-63
2022/11/12 08:51:43;;;;;;;33.90;9.68;;;6.00;82.80;;;;;;9182745;19;20722;-62
2022/11/12 08:55:09;;;;;;;35.78;9.13;;;6.10;82.90;;;;;;9175059;19;20018;-63
2022/11/12 08:58:31;;;;;;;24.10;8.90;;;6.20;83.00;;;;;;9180006;19;20019;-62
2022/11/12 09:01:53;;;;;;;25.73;9.38;;;6.20;83.00;;;;;;9179538;19;20489;-61
2022/11/12 09:05:16;;;;;;;24.63;9.60;;;6.30;83.10;;;;;;9182409;19;20014;-66
2022/11/12 09:08:39;;;;;;;22.27;9.50;;;6.40;83.10;;;;;;9181450;19;20018;-64
2022/11/12 09:12:03;;;;;;;33.60;10.75;;;6.50;83.20;;;;;;9180915;19;20483;-62
2022/11/12 09:15:36;;;;;;;17.30;9.73;;;6.60;83.30;;;;;;9180644;19;20006;-63
2022/11/12 09:19:00;;;;;;;18.30;9.73;;;6.60;83.30;;;;;;9180729;19;20017;-64
2022/11/12 09:22:22;;;;;;;22.85;10.55;;;6.70;83.40;;;;;;9181276;19;20014;-63
2022/11/12 09:25:45;;;;;;;22.90;9.98;;;6.90;83.50;;;;;;9180562;19;20044;-65
2022/11/12 09:29:10;;;;;;;18.73;9.38;;;7.00;83.60;;;;;;9180907;19;20554;-65
2022/11/12 09:32:32;;;;;;;25.95;11.30;;;7.10;83.70;;;;;;9181495;19;20015;-63
2022/11/12 09:35:55;;;;;;;26.83;11.55;;;7.20;83.70;;;;;;9178584;19;20031;-63
2022/11/12 09:39:17;;;;;;;32.30;12.50;;;7.30;83.80;;;;;;9178742;19;20041;-63
2022/11/12 09:42:40;;;;;;;39.90;13.05;;;7.50;84.00;;;;;;9180416;19;20464;-62
2022/11/12 09:46:12;;;;;;;24.50;12.60;;;7.60;84.00;;;;;;9178483;19;20018;-64
2022/11/12 09:49:56;;;;;;;30.25;14.43;;;7.80;84.20;;;;;;9181730;19;20086;-65
2022/11/12 09:53:20;;;;;;;32.17;14.77;;;8.00;84.20;;;;;;9176528;19;20078;-63
2022/11/12 09:56:42;;;;;;;26.40;12.77;;;8.20;84.30;;;;;;9179454;19;20021;-62
2022/11/12 10:00:11;;;;;;;33.97;12.48;;;8.50;84.30;;;;;;9179802;19;20014;-63
2022/11/12 10:03:43;;;;;;;23.73;11.50;;;8.70;84.40;;;;;;9176232;19;20011;-64
2022/11/12 10:07:10;;;;;;;30.67;12.77;;;9.00;84.60;;;;;;9176117;19;20022;-65
2022/11/12 10:10:42;;;;;;;28.48;11.32;;;9.20;84.40;;;;;;9177222;19;20014;-64
2022/11/12 10:14:14;;;;;;;23.02;9.82;;;9.50;84.40;;;;;;9179148;19;20412;-63
2022/11/12 10:17:40;;;;;;;20.38;9.50;;;9.70;84.50;;;;;;9177240;19;20037;-64
2022/11/12 10:21:13;;;;;;;26.27;8.88;;;10.00;84.40;;;;;;9181468;19;20832;-65
2022/11/12 10:24:37;;;;;;;19.77;7.63;;;10.20;84.30;;;;;;9177381;19;20018;-65
2022/11/12 10:28:00;;;;;;;;;;;10.40;84.20;;;;;;9180945;19;20014;-62
2022/11/12 10:31:23;;;;;;;20.88;7.90;;;10.60;84.00;;;;;;9179078;19;19938;-64
2022/11/12 10:34:45;;;;;;;16.63;7.07;;;10.80;83.80;;;;;;9179803;19;20014;-63
2022/11/12 10:38:16;;;;;;;16.73;7.75;;;11.00;83.70;;;;;;9178186;19;20041;-64
2022/11/12 10:41:38;;;;;;;20.02;7.80;;;11.20;83.70;;;;;;9179618;19;20050;-64
2022/11/12 10:45:20;;;;;;;20.05;9.52;;;11.40;83.70;;;;;;9173987;19;20370;-64
2022/11/12 10:48:55;;;;;;;21.38;7.43;;;11.60;83.60;;;;;;9179547;19;20035;-61
2022/11/12 10:52:25;;;;;;;16.17;6.90;;;11.80;83.40;;;;;;9180059;19;20369;-64
2022/11/12 10:55:59;;;;;;;15.30;6.78;;;11.90;83.20;;;;;;9172128;19;20014;-65
2022/11/12 10:59:22;;;;;;;18.52;6.15;;;12.10;83.10;;;;;;9178557;19;20036;-63
2022/11/12 11:02:50;;;;;;;15.98;7.20;;;12.30;82.90;;;;;;9176078;19;20022;-64
2022/11/12 11:06:23;;;;;;;15.50;6.88;;;12.40;82.70;;;;;;9179488;19;20507;-64
2022/11/12 11:09:53;;;;;;;12.00;5.82;;;12.50;82.60;;;;;;9178378;19;20022;-62
2022/11/12 11:13:23;;;;;;;14.52;6.07;;;12.70;82.50;;;;;;9176353;19;20035;-62
2022/11/12 11:16:51;;;;;;;15.35;5.82;;;12.80;82.40;;;;;;9176136;19;20018;-65
2022/11/12 11:20:25;;;;;;;12.68;6.15;;;12.90;82.20;;;;;;9178528;19;20043;-66
2022/11/12 11:23:53;;;;;;;14.68;7.60;;;13.10;82.10;;;;;;9175599;19;20966;-66
2022/11/12 11:27:34;;;;;;;16.35;6.03;;;13.20;82.00;;;;;;9176343;19;20034;-64
2022/11/12 11:31:07;;;;;;;10.18;5.50;;;13.30;81.80;;;;;;9178289;19;20014;-64
2022/11/12 11:34:38;;;;;;;13.63;5.25;;;13.40;81.80;;;;;;9177576;19;20882;-64
2022/11/12 11:38:17;;;;;;;9.52;4.72;;;13.40;81.60;;;;;;9175223;19;20018;-65
2022/11/12 11:41:53;;;;;;;12.23;5.50;;;13.40;81.40;;;;;;9175663;19;20018;-63
2022/11/12 11:45:19;;;;;;;12.18;4.85;;;13.40;81.40;;;;;;9177203;19;20014;-66
2022/11/12 11:48:55;;;;;;;11.55;5.57;;;13.50;81.40;;;;;;9175448;19;20018;-62
2022/11/12 11:52:32;;;;;;;12.93;5.10;;;13.50;81.30;;;;;;9177273;19;20014;-64
2022/11/12 11:55:58;;;;;;;9.23;4.68;;;13.50;81.20;;;;;;9173175;19;20014;-70
2022/11/12 11:59:38;;;;;;;12.45;5.90;;;13.50;81.20;;;;;;9173813;19;20026;-69
2022/11/12 12:03:18;;;;;;;12.05;5.40;;;13.50;81.00;;;;;;9176117;19;20037;-68
2022/11/12 12:06:49;;;;;;;13.75;4.78;;;13.50;81.10;;;;;;9175166;19;20125;-67
2022/11/12 12:10:24;;;;;;;11.65;4.88;;;13.50;81.10;;;;;;9169746;19;20018;-68
2022/11/12 12:14:28;;;;;;;9.70;5.03;;;13.50;80.90;;;;;;9171059;19;20081;-68
2022/11/12 12:18:01;;;;;;;14.77;4.90;;;13.50;80.80;;;;;;9176004;19;20022;-68
2022/11/12 12:21:26;;;;;;;11.38;5.32;;;13.50;80.90;;;;;;9171601;19;20081;-68
2022/11/12 12:24:53;;;;;;;11.63;5.40;;;13.50;80.90;;;;;;9161280;19;20495;-68
2022/11/12 12:28:24;;;;;;;14.82;5.38;;;13.50;80.70;;;;;;9169450;19;20018;-67
2022/11/12 12:31:52;;;;;;;13.35;5.65;;;13.50;80.70;;;;;;9169809;19;20018;-67
2022/11/12 12:35:24;;;;;;;12.48;5.60;;;13.50;80.70;;;;;;9168243;19;20467;-67
2022/11/12 12:38:52;;;;;;;13.40;5.20;;;13.60;80.70;;;;;;9169316;19;20026;-67
2022/11/12 12:42:22;;;;;;;11.90;6.13;;;13.60;80.70;;;;;;9170717;19;20025;-67
2022/11/12 12:45:46;;;;;;;14.35;5.35;;;13.60;80.50;;;;;;9164243;19;20018;-66
2022/11/12 12:49:16;;;;;;;10.80;4.95;;;13.60;80.50;;;;;;9167533;19;20015;-67
2022/11/12 12:53:00;;;;;;;12.18;5.47;;;13.60;80.40;;;;;;9166127;19;20034;-66
2022/11/12 12:56:45;;;;;;;13.98;5.38;;;13.60;80.20;;;;;;9166002;19;20021;-68
2022/11/12 13:00:28;;;;;;;;;;;13.70;80.20;;;;;;9167760;19;20129;-67
2022/11/12 13:04:01;;;;;;;11.35;6.18;;;13.70;80.40;;;;;;9165323;19;19915;-65
2022/11/12 13:07:40;;;;;;;18.20;6.28;;;13.70;80.30;;;;;;9164543;19;20015;-67
2022/11/12 13:11:02;;;;;;;16.08;5.95;;;13.80;80.30;;;;;;9167702;19;20018;-66
2022/11/12 13:14:46;;;;;;;15.70;5.85;;;13.80;80.20;;;;;;9167320;19;20026;-64
2022/11/12 13:18:10;;;;;;;12.77;6.10;;;13.80;79.90;;;;;;9165091;19;20973;-64
2022/11/12 13:21:40;;;;;;;11.85;5.20;;;13.80;80.00;;;;;;9170357;19;20014;-64
2022/11/12 13:25:04;;;;;;;;;;;13.80;79.90;;;;;;9169475;19;20049;-64
2022/11/12 13:28:26;;;;;;;12.20;5.47;;;13.90;80.00;;;;;;9173174;19;19915;-63
2022/11/12 13:31:49;;;;;;;13.02;6.18;;;13.90;80.00;;;;;;9173365;19;20010;-65
2022/11/12 13:35:27;;;;;;;16.20;6.30;;;13.90;79.90;;;;;;9170184;19;20022;-66
2022/11/12 13:38:52;;;;;;;14.07;6.13;;;13.90;79.70;;;;;;9170690;19;20022;-68
2022/11/12 13:45:59;;;;;;;13.65;5.15;;;14.00;79.60;;;;;;9173105;19;20085;-65
2022/11/12 13:49:21;;;;;;;9.68;5.20;;;14.00;79.60;;;;;;9169300;19;20040;-63
2022/11/12 13:52:44;;;;;;;13.80;4.80;;;14.00;79.50;;;;;;9174090;19;20056;-66
2022/11/12 13:56:13;;;;;;;18.02;5.10;;;14.00;79.40;;;;;;9173142;19;20011;-64
2022/11/12 13:59:36;;;;;;;10.30;5.60;;;14.00;79.20;;;;;;9174431;19;20033;-64
2022/11/12 14:03:01;;;;;;;11.80;5.38;;;13.90;79.20;;;;;;9170859;19;20046;-68
2022/11/12 14:06:29;;;;;;;12.60;5.10;;;14.00;79.20;;;;;;9172656;19;20501;-67
2022/11/12 14:10:02;;;;;;;10.77;5.15;;;14.00;79.10;;;;;;9173726;19;20021;-65
2022/11/12 14:13:43;;;;;;;16.90;5.35;;;14.00;79.00;;;;;;9169654;19;20039;-63
2022/11/12 14:17:19;;;;;;;8.52;4.72;;;14.00;78.90;;;;;;9171734;19;20267;-65
2022/11/12 14:20:44;;;;;;;9.20;4.53;;;14.10;78.90;;;;;;9172700;19;20019;-64
2022/11/12 14:24:11;;;;;;;13.10;5.40;;;14.10;79.00;;;;;;9169945;19;20014;-66
2022/11/12 14:27:36;;;;;;;10.48;4.78;;;14.10;79.00;;;;;;9170049;19;20021;-65
2022/11/12 14:31:02;;;;;;;13.25;5.68;;;14.10;79.00;;;;;;9169497;19;20035;-66
2022/11/12 14:34:30;;;;;;;12.45;5.30;;;14.10;78.90;;;;;;9173454;19;20111;-71
2022/11/12 14:37:55;;;;;;;7.65;4.88;;;14.10;78.80;;;;;;9171579;19;20018;-66
2022/11/12 14:41:18;;;;;;;;;;;14.10;78.90;;;;;;9170994;19;20015;-64
2022/11/12 14:44:40;;;;;;;14.88;7.43;;;14.20;79.00;;;;;;9169907;19;19925;-64
2022/11/12 14:48:10;;;;;;;33.25;12.43;;;14.20;79.00;;;;;;9165255;19;20029;-68
2022/11/12 14:51:46;;;;;;;30.95;11.75;;;14.20;78.80;;;;;;9171224;19;20049;-66
2022/11/12 14:55:13;;;;;;;33.47;12.50;;;14.20;78.70;;;;;;9160023;19;20030;-66
2022/11/12 14:58:36;;;;;;;17.50;9.05;;;14.10;78.70;;;;;;9164048;19;20022;-68
2022/11/12 15:02:08;;;;;;;13.88;7.85;;;14.10;78.70;;;;;;9170058;19;20019;-68
2022/11/12 15:06:07;;;;;;;13.80;7.07;;;14.10;78.60;;;;;;9174133;19;20010;-65
2022/11/12 15:09:35;;;;;;;16.73;7.22;;;14.10;78.50;;;;;;9166019;19;20023;-67
2022/11/12 15:13:04;;;;;;;20.02;7.40;;;14.10;78.60;;;;;;9176287;19;20011;-65
2022/11/12 15:16:29;;;;;;;17.42;7.07;;;14.10;78.60;;;;;;9176723;19;20015;-66
2022/11/12 15:19:51;;;;;;;11.93;6.35;;;14.10;78.60;;;;;;9175973;19;20461;-67
2022/11/12 15:23:20;;;;;;;13.23;6.18;;;14.00;78.50;;;;;;9177023;19;20014;-66
2022/11/12 15:26:44;;;;;;;10.35;5.55;;;14.00;78.40;;;;;;9178302;19;20014;-67
2022/11/12 15:30:17;;;;;;;9.73;5.10;;;14.00;78.50;;;;;;9176434;19;20059;-67
2022/11/12 15:33:39;;;;;;;10.95;5.40;;;13.90;78.40;;;;;;9178109;19;20577;-66
2022/11/12 15:37:06;;;;;;;10.93;5.45;;;13.90;78.50;;;;;;9177291;19;20660;-67
2022/11/12 15:40:31;;;;;;;11.32;5.68;;;13.80;78.30;;;;;;9177297;19;20019;-66
2022/11/12 15:43:54;;;;;;;12.77;5.88;;;13.80;78.30;;;;;;9173941;19;20013;-66
2022/11/12 15:47:21;;;;;;;11.02;6.00;;;13.70;78.30;;;;;;9173505;19;20014;-65
2022/11/12 15:50:44;;;;;;;11.60;5.78;;;13.60;78.30;;;;;;9177999;19;20492;-67
2022/11/12 15:54:06;;;;;;;9.30;5.15;;;13.60;78.30;;;;;;9162128;19;20426;-64
2022/11/12 15:57:35;;;;;;;12.10;5.85;;;13.50;78.30;;;;;;9167493;19;20026;-68
2022/11/12 16:00:57;;;;;;;13.45;6.57;;;13.50;78.30;;;;;;9158215;19;20480;-64
2022/11/12 16:04:20;;;;;;;14.15;6.07;;;13.40;78.30;;;;;;9151799;19;20367;-67
2022/11/12 16:07:42;;;;;;;11.30;5.78;;;13.30;78.30;;;;;;9155715;19;20022;-65
2022/11/12 16:11:34;;;;;;;21.15;7.53;;;13.30;78.30;;;;;;9160939;19;20014;-66
2022/11/12 16:14:49;;;;;;;14.38;6.35;;;13.10;78.20;;;;;;9160395;19;20431;-66
2022/11/12 16:18:12;;;;;;;15.50;6.78;;;13.10;78.30;;;;;;9160542;19;20563;-67
2022/11/12 16:21:34;;;;;;;13.70;6.65;;;13.00;78.30;;;;;;9164629;19;20014;-64
2022/11/12 16:24:56;;;;;;;12.45;6.75;;;12.90;78.20;;;;;;9166600;19;20039;-64
2022/11/12 16:28:20;;;;;;;15.60;7.15;;;12.80;78.30;;;;;;9166230;19;20019;-64
2022/11/12 16:31:45;;;;;;;15.13;7.50;;;12.70;78.20;;;;;;9167894;19;20738;-63
2022/11/12 16:35:07;;;;;;;17.98;7.43;;;12.70;78.30;;;;;;9168614;19;20625;-62
2022/11/12 16:38:30;;;;;;;18.27;7.45;;;12.60;78.30;;;;;;9167913;19;20023;-63
2022/11/12 16:41:52;;;;;;;15.90;7.10;;;12.50;78.30;;;;;;9172634;19;20031;-64
2022/11/12 16:45:15;;;;;;;14.68;7.22;;;12.40;78.30;;;;;;9166207;19;20033;-67
2022/11/12 16:48:42;;;;;;;13.50;7.25;;;12.30;78.30;;;;;;9172131;19;20049;-66
2022/11/12 16:52:05;;;;;;;16.67;7.13;;;12.20;78.30;;;;;;9168848;19;20019;-63
2022/11/12 16:55:27;;;;;;;14.15;6.97;;;12.20;78.40;;;;;;9167900;19;20039;-64
2022/11/12 16:58:50;;;;;;;14.45;7.32;;;12.10;78.40;;;;;;9180011;19;20022;-65
2022/11/12 17:02:16;;;;;;;17.40;7.72;;;12.00;78.40;;;;;;9181834;19;20019;-64
2022/11/12 17:05:40;;;;;;;16.02;7.30;;;11.90;78.40;;;;;;9177172;19;20006;-65
2022/11/12 17:09:03;;;;;;;15.52;8.30;;;11.80;78.40;;;;;;9180023;19;20014;-64
2022/11/12 17:12:25;;;;;;;14.75;7.53;;;11.80;78.50;;;;;;9179928;19;20019;-65
2022/11/12 17:15:47;;;;;;;16.58;8.82;;;11.70;78.60;;;;;;9180278;19;20049;-64
2022/11/12 17:19:11;;;;;;;15.57;8.63;;;11.60;78.50;;;;;;9176654;19;20018;-65
2022/11/12 17:22:35;;;;;;;;;;;11.50;78.60;;;;;;9181307;19;20046;-64
2022/11/12 17:26:02;;;;;;;17.67;9.98;;;11.50;78.60;;;;;;9180603;19;19994;-64
2022/11/12 17:29:24;;;;;;;21.33;9.70;;;11.40;78.60;;;;;;9179389;19;20018;-64
2022/11/12 17:32:47;;;;;;;16.08;10.18;;;11.30;78.60;;;;;;9179443;19;20096;-66
2022/11/12 17:36:12;;;;;;;14.20;8.13;;;11.30;78.70;;;;;;9181240;19;20011;-65
2022/11/12 17:39:36;;;;;;;18.42;10.35;;;11.30;78.80;;;;;;9182107;19;20423;-63
2022/11/12 17:42:58;;;;;;;19.85;11.13;;;11.20;78.80;;;;;;9179224;19;20042;-64
2022/11/12 17:46:20;;;;;;;25.27;13.73;;;11.10;78.80;;;;;;9177520;19;20062;-66
2022/11/12 17:49:43;;;;;;;24.27;12.07;;;11.10;78.90;;;;;;9173279;19;20030;-66
2022/11/12 17:53:05;;;;;;;19.15;11.95;;;11.00;78.80;;;;;;9172147;19;20017;-66
2022/11/12 17:56:30;;;;;;;18.08;11.60;;;11.00;78.90;;;;;;9180528;19;20025;-66
2022/11/12 17:59:58;;;;;;;16.73;11.55;;;10.90;78.90;;;;;;9179403;19;20014;-64
2022/11/12 18:03:20;;;;;;;19.83;11.52;;;10.90;79.00;;;;;;9180364;19;20018;-65
2022/11/12 18:06:42;;;;;;;18.52;10.93;;;10.80;78.90;;;;;;9175405;19;20872;-62
2022/11/12 18:10:06;;;;;;;16.20;10.98;;;10.80;79.00;;;;;;9180575;19;20440;-65
2022/11/12 18:13:30;;;;;;;18.48;11.02;;;10.70;79.00;;;;;;9180147;19;20010;-67
2022/11/12 18:16:52;;;;;;;19.52;11.77;;;10.70;79.00;;;;;;9175932;19;20019;-64
2022/11/12 18:20:16;;;;;;;19.85;10.82;;;10.60;79.00;;;;;;9179681;19;20022;-64
2022/11/12 18:23:38;;;;;;;22.45;10.80;;;10.60;79.00;;;;;;9175160;19;20022;-66